createdAt,value
2022-09-20T07:18:36.140Z,67.84
2022-09-20T07:19:37.492Z,69.05
2022-09-20T07:20:39.460Z,69.09
2022-09-20T07:21:40.772Z,68.56
2022-09-20T07:26:31.416Z,64.81
2022-09-20T07:27:32.757Z,63.93
2022-09-20T07:38:01.854Z,69.68
2022-09-20T07:43:33.105Z,72.25
2022-09-20T07:44:34.451Z,72.37
2022-09-20T07:48:38.032Z,70.75
2022-09-20T07:49:39.484Z,69.41
2022-09-20T07:52:40.432Z,66.33
2022-09-20T07:53:42.023Z,66.41
2022-09-20T07:54:43.919Z,64.88
2022-09-20T07:55:57.043Z,63.23
2022-09-20T07:56:58.485Z,61.30
2022-09-20T07:57:59.878Z,60.16
2022-09-20T07:59:01.229Z,58.09
2022-09-20T08:00:05.746Z,58.80
2022-09-20T08:01:09.843Z,59.01
2022-09-20T08:02:18.284Z,58.12
2022-09-20T08:07:04.705Z,63.46
2022-09-20T08:08:11.004Z,62.37
2022-09-20T08:09:13.753Z,62.37
2022-09-20T08:10:15.150Z,63.18
2022-09-20T08:14:08.272Z,62.90
2022-09-20T08:15:12.050Z,61.79
2022-09-20T08:16:14.749Z,61.39
2022-09-20T08:17:16.356Z,62.57
2022-09-20T08:18:17.697Z,60.56
2022-09-20T08:19:26.014Z,61.25
2022-09-20T08:20:27.395Z,61.33
2022-09-20T08:33:06.960Z,57.74
2022-09-20T08:34:10.721Z,55.56
2022-09-20T08:35:13.519Z,56.00
2022-09-20T08:36:17.808Z,54.43
2022-09-20T08:37:19.355Z,54.79
2022-09-20T08:40:03.212Z,52.72
2022-09-20T08:41:11.826Z,50.48
2022-09-20T08:42:18.747Z,53.40
2022-09-20T08:43:22.804Z,52.39
2022-09-20T08:44:35.080Z,52.71
2022-09-20T08:45:36.910Z,51.39
2022-09-20T08:47:09.751Z,49.75
2022-09-20T08:48:16.884Z,48.90
2022-09-20T08:49:28.808Z,51.54
2022-09-20T08:50:30.195Z,51.86
2022-09-20T08:51:35.628Z,51.33
2022-09-20T08:52:40.001Z,50.54
2022-09-20T08:53:56.142Z,49.29
2022-09-20T08:54:59.316Z,48.90
2022-09-20T08:56:01.329Z,51.55
2022-09-20T08:57:09.288Z,54.73
2022-09-20T08:58:13.519Z,55.52
2022-09-20T08:59:24.187Z,53.64
2022-09-20T09:00:34.047Z,53.31
2022-09-20T09:01:36.828Z,55.88
2022-09-20T09:02:39.294Z,56.37
2022-09-20T09:03:40.686Z,57.10
2022-09-20T09:04:46.859Z,58.47
2022-09-20T09:05:48.268Z,60.47
2022-09-20T09:06:51.168Z,63.41
2022-09-20T09:07:52.735Z,62.57
2022-09-20T09:08:57.994Z,62.25
2022-09-20T09:10:04.274Z,61.08
2022-09-20T09:11:09.529Z,59.72
2022-09-20T09:12:19.139Z,57.86
2022-09-20T09:13:33.004Z,57.69
2022-09-20T09:14:53.867Z,54.65
2022-09-20T09:16:05.725Z,53.22
2022-09-20T09:17:09.637Z,53.66
2022-09-20T09:18:11.544Z,54.12
2022-09-20T09:19:42.924Z,54.54
2022-09-20T09:20:46.098Z,55.20
2022-09-20T09:21:47.537Z,53.48
2022-09-20T09:23:11.301Z,52.77
2022-09-20T09:24:19.439Z,54.07
2022-09-20T09:25:34.252Z,54.36
2022-09-20T09:26:38.822Z,56.27
2022-09-20T09:28:12.431Z,56.51
2022-09-20T09:29:18.074Z,55.53
2022-09-20T09:30:25.952Z,54.12
2022-09-20T09:31:27.423Z,54.03
2022-09-20T09:32:33.181Z,54.31
2022-09-20T09:33:34.849Z,54.92
2022-09-20T09:34:38.707Z,54.65
2022-09-20T09:35:40.621Z,52.59
2022-09-20T09:36:44.815Z,50.55
2022-09-20T09:38:00.111Z,46.70
2022-09-20T09:39:22.598Z,46.44
2022-09-20T09:40:24.381Z,45.85
2022-09-20T09:41:33.224Z,46.35
2022-09-20T09:42:35.902Z,44.23
2022-09-20T09:43:40.430Z,43.40
2022-09-20T09:44:41.830Z,44.74
2022-09-20T09:45:43.242Z,45.74
2022-09-20T09:46:44.877Z,45.21
2022-09-20T09:47:46.308Z,45.84
2022-09-20T09:49:05.364Z,47.39
2022-09-20T09:50:22.254Z,50.55
2022-09-20T09:51:23.583Z,51.00
2022-09-20T09:52:27.849Z,49.84
2022-09-20T09:53:29.286Z,46.94
2022-09-20T09:55:03.841Z,47.17
2022-09-20T10:02:04.388Z,53.00
2022-09-20T10:03:33.612Z,48.77
2022-09-20T10:04:38.470Z,48.76
2022-09-20T10:06:10.705Z,50.97
2022-09-20T10:07:27.920Z,52.70
2022-09-20T10:08:49.166Z,54.01
2022-09-20T10:10:04.492Z,51.81
2022-09-20T10:11:24.854Z,47.90
2022-09-20T10:12:39.325Z,43.04
2022-09-20T10:14:05.271Z,42.99
2022-09-20T10:15:35.530Z,42.44
2022-09-20T10:17:01.906Z,43.18
2022-09-20T10:18:24.617Z,44.27
2022-09-20T10:19:55.720Z,46.76
2022-09-20T10:31:35.797Z,58.05
2022-09-20T10:32:49.792Z,59.39
2022-09-20T10:41:29.097Z,55.66
2022-09-20T10:42:55.196Z,53.88
2022-09-20T10:44:15.096Z,53.18
2022-09-20T10:46:20.553Z,52.96
2022-09-20T10:47:15.563Z,52.38
2022-09-20T10:48:20.537Z,52.55
2022-09-20T10:49:41.409Z,52.49
2022-09-20T11:00:45.773Z,55.66
2022-09-20T11:01:58.950Z,56.78
2022-09-20T11:14:05.212Z,56.65
2022-09-20T11:15:35.394Z,55.71
2022-09-20T11:16:46.782Z,55.47
2022-09-20T11:18:12.288Z,54.21
2022-09-20T11:19:26.651Z,54.97
2022-09-20T11:32:37.030Z,56.05
2022-09-20T11:33:53.230Z,56.05
2022-09-20T11:34:59.859Z,56.13
2022-09-20T11:42:08.198Z,53.86
2022-09-20T11:43:10.838Z,54.66
2022-09-20T12:02:16.443Z,49.80
2022-09-20T12:03:40.211Z,48.55
2022-09-20T12:04:46.226Z,44.35
2022-09-20T12:06:00.392Z,42.30
2022-09-20T12:07:10.636Z,40.21
2022-09-20T12:14:01.357Z,47.85
2022-09-20T12:15:06.909Z,44.92
2022-09-20T12:16:14.755Z,43.22
2022-09-20T12:17:44.335Z,42.88
2022-09-20T12:18:54.397Z,44.27
2022-09-20T12:19:55.760Z,43.60
2022-09-20T12:21:04.175Z,42.45
2022-09-20T12:22:26.880Z,42.04
2022-09-20T12:23:40.433Z,41.72
2022-09-20T12:24:45.462Z,40.75
2022-09-20T12:32:52.185Z,37.47
2022-09-20T12:34:10.457Z,39.67
2022-09-20T12:35:44.350Z,39.84
2022-09-20T12:37:10.222Z,39.98
2022-09-20T12:38:28.433Z,40.26
2022-09-20T12:39:35.864Z,41.18
2022-09-20T12:40:58.193Z,41.44
2022-09-20T12:42:22.792Z,41.64
2022-09-20T12:43:24.539Z,41.67
2022-09-20T12:44:54.063Z,43.08
2022-09-20T12:46:01.272Z,44.73
2022-09-20T12:47:11.376Z,45.70
2022-09-20T12:48:19.545Z,46.08
2022-09-20T12:49:48.480Z,46.09
2022-09-20T12:51:48.249Z,47.85
2022-09-20T12:52:57.936Z,47.42
2022-09-20T12:54:06.479Z,46.63
2022-09-20T12:55:11.491Z,46.33
2022-09-20T12:56:21.698Z,45.40
2022-09-20T12:57:32.519Z,46.47
2022-09-20T12:58:54.624Z,47.86
2022-09-20T13:04:59.058Z,48.86
2022-09-20T13:06:06.167Z,48.43
2022-09-20T13:07:34.915Z,48.36
2022-09-20T13:08:51.359Z,47.26
2022-09-20T13:09:54.016Z,48.00
2022-09-20T13:11:07.134Z,48.27
2022-09-20T13:12:10.502Z,49.32
2022-09-20T13:13:28.719Z,50.00
2022-09-20T13:14:32.492Z,49.78
2022-09-20T13:15:35.602Z,50.32
2022-09-20T13:22:47.665Z,51.49
2022-09-20T13:23:52.343Z,50.62
2022-09-20T13:24:58.089Z,50.43
2022-09-20T13:33:56.891Z,53.30
2022-09-20T13:35:10.209Z,53.78
2022-09-20T13:45:54.082Z,58.85
2022-09-20T13:46:59.280Z,59.42
2022-09-20T13:56:58.407Z,62.17
2022-09-20T13:58:03.545Z,62.83
2022-09-20T14:16:55.145Z,62.30
2022-09-20T14:17:56.899Z,61.84
2022-09-20T14:24:37.399Z,60.76
2022-09-20T14:25:38.921Z,59.94
2022-09-20T14:26:42.537Z,59.90
2022-09-20T14:27:44.234Z,59.92
2022-09-20T14:28:46.683Z,59.39
2022-09-20T14:29:52.591Z,58.25
2022-09-20T14:31:15.794Z,58.03
2022-09-20T14:32:17.167Z,56.85
2022-09-20T14:33:21.016Z,56.10
2022-09-20T14:34:22.595Z,55.15
2022-09-20T14:35:24.008Z,53.27
2022-09-20T14:48:10.864Z,44.25
2022-09-20T14:49:25.835Z,43.40
2022-09-20T14:50:39.225Z,42.70
2022-09-20T14:51:40.577Z,42.43
2022-09-20T14:52:44.010Z,43.87
2022-09-20T14:53:48.066Z,44.78
2022-09-20T14:55:16.498Z,43.83
2022-09-20T14:56:32.672Z,43.86
2022-09-20T14:57:34.202Z,43.57
2022-09-20T14:59:05.548Z,44.51
2022-09-20T15:07:01.604Z,43.89
2022-09-20T15:08:03.250Z,43.53
2022-09-20T15:09:04.649Z,45.39
2022-09-20T15:10:15.775Z,46.00
2022-09-20T15:11:18.917Z,48.08
2022-09-20T15:18:03.530Z,48.31
2022-09-20T15:19:06.115Z,50.52
2022-09-20T15:24:44.114Z,50.92
2022-09-20T15:25:49.346Z,48.81
2022-09-20T15:26:50.698Z,48.04
2022-09-20T15:27:52.026Z,47.03
2022-09-20T15:28:53.397Z,46.68
2022-09-20T15:29:55.854Z,45.82
2022-09-20T15:30:57.382Z,46.22
2022-09-20T15:31:58.885Z,47.11
2022-09-20T15:33:03.001Z,46.67
2022-09-20T15:34:07.130Z,45.70
2022-09-20T15:35:09.599Z,45.21
2022-09-20T15:36:10.930Z,45.46
2022-09-20T15:37:12.395Z,46.74
2022-09-20T15:38:16.995Z,45.33
2022-09-20T15:39:18.483Z,45.47
2022-09-20T15:40:19.925Z,45.16
2022-09-20T15:41:21.460Z,45.12
2022-09-20T15:48:03.051Z,44.43
2022-09-20T15:49:06.559Z,45.46
2022-09-20T15:50:09.085Z,46.42
2022-09-20T15:51:12.148Z,47.84
2022-09-20T15:52:13.746Z,48.68
2022-09-20T15:53:15.110Z,49.84
2022-09-20T15:54:17.110Z,50.96
2022-09-20T15:55:19.397Z,50.94
2022-09-20T15:56:22.018Z,52.42
2022-09-20T15:57:24.219Z,51.67
2022-09-20T15:58:26.062Z,51.93
2022-09-20T16:06:03.945Z,51.42
2022-09-20T16:07:06.992Z,51.81
2022-09-20T16:08:08.385Z,51.07
2022-09-20T16:09:09.940Z,51.48
2022-09-20T16:10:11.289Z,51.63
2022-09-20T16:11:22.403Z,51.62
2022-09-20T16:12:25.579Z,51.48
2022-09-20T16:21:21.357Z,51.29
2022-09-20T16:22:23.360Z,50.62
2022-09-20T16:23:26.090Z,52.47
2022-09-20T16:24:30.273Z,53.55
2022-09-20T16:25:32.174Z,53.42
2022-09-20T16:34:28.402Z,56.84
2022-09-20T16:35:29.771Z,56.52
2022-09-20T16:36:32.808Z,55.54
2022-09-20T16:37:35.325Z,55.17
2022-09-20T16:38:39.667Z,55.17
2022-09-20T16:39:41.974Z,55.37
2022-09-20T16:40:44.004Z,55.43
2022-09-20T16:41:48.131Z,56.67
